sensor_id;sensor_type;location;lat;lon;timestamp;P1;durP1;ratioP1;P2;durP2;ratioP2
59169;SDS011;52474;52.236;5.114;2023-09-12T00:01:09;164.95;;;45.38;;
59169;SDS011;52474;52.236;5.114;2023-09-12T00:03:34;150.80;;;46.70;;
59169;SDS011;52474;52.236;5.114;2023-09-12T00:06:01;199.40;;;51.45;;
59169;SDS011;52474;52.236;5.114;2023-09-12T00:08:27;165.00;;;47.78;;
59169;SDS011;52474;52.236;5.114;2023-09-12T00:11:03;197.82;;;49.63;;
59169;SDS011;52474;52.236;5.114;2023-09-12T00:13:30;179.00;;;50.40;;
59169;SDS011;52474;52.236;5.114;2023-09-12T00:15:57;152.13;;;48.25;;
59169;SDS011;52474;52.236;5.114;2023-09-12T00:18:22;185.63;;;46.42;;
59169;SDS011;52474;52.236;5.114;2023-09-12T00:20:49;206.25;;;47.03;;
59169;SDS011;52474;52.236;5.114;2023-09-12T00:23:15;252.80;;;44.80;;
59169;SDS011;52474;52.236;5.114;2023-09-12T00:25:41;471.52;;;49.67;;
59169;SDS011;52474;52.236;5.114;2023-09-12T00:28:06;322.25;;;44.58;;
59169;SDS011;52474;52.236;5.114;2023-09-12T00:30:32;483.00;;;46.60;;
59169;SDS011;52474;52.236;5.114;2023-09-12T00:32:58;238.82;;;47.17;;
59169;SDS011;52474;52.236;5.114;2023-09-12T00:35:24;220.50;;;45.72;;
59169;SDS011;52474;52.236;5.114;2023-09-12T00:37:50;334.55;;;47.47;;
59169;SDS011;52474;52.236;5.114;2023-09-12T00:40:16;376.55;;;52.38;;
59169;SDS011;52474;52.236;5.114;2023-09-12T00:42:41;227.88;;;48.58;;
59169;SDS011;52474;52.236;5.114;2023-09-12T00:45:08;288.98;;;58.67;;
59169;SDS011;52474;52.236;5.114;2023-09-12T00:47:34;302.15;;;57.38;;
59169;SDS011;52474;52.236;5.114;2023-09-12T00:50:01;201.80;;;53.88;;
59169;SDS011;52474;52.236;5.114;2023-09-12T00:52:30;237.43;;;51.85;;
59169;SDS011;52474;52.236;5.114;2023-09-12T00:54:58;171.77;;;49.97;;
59169;SDS011;52474;52.236;5.114;2023-09-12T00:57:25;207.00;;;50.28;;
59169;SDS011;52474;52.236;5.114;2023-09-12T00:59:51;169.27;;;54.80;;
59169;SDS011;52474;52.236;5.114;2023-09-12T01:02:21;187.27;;;54.00;;
59169;SDS011;52474;52.236;5.114;2023-09-12T01:04:47;207.73;;;54.95;;
59169;SDS011;52474;52.236;5.114;2023-09-12T01:07:14;165.05;;;47.20;;
59169;SDS011;52474;52.236;5.114;2023-09-12T01:09:40;152.52;;;35.83;;
59169;SDS011;52474;52.236;5.114;2023-09-12T01:12:06;96.90;;;35.17;;
59169;SDS011;52474;52.236;5.114;2023-09-12T01:14:32;126.47;;;37.20;;
59169;SDS011;52474;52.236;5.114;2023-09-12T01:16:57;128.93;;;34.28;;
59169;SDS011;52474;52.236;5.114;2023-09-12T01:19:23;159.93;;;35.33;;
59169;SDS011;52474;52.236;5.114;2023-09-12T01:29:47;674.50;;;52.47;;
59169;SDS011;52474;52.236;5.114;2023-09-12T01:32:17;497.33;;;45.15;;
59169;SDS011;52474;52.236;5.114;2023-09-12T01:34:45;463.55;;;47.33;;
59169;SDS011;52474;52.236;5.114;2023-09-12T01:37:10;401.45;;;46.80;;
59169;SDS011;52474;52.236;5.114;2023-09-12T01:39:36;331.45;;;41.20;;
59169;SDS011;52474;52.236;5.114;2023-09-12T01:42:03;225.90;;;37.95;;
59169;SDS011;52474;52.236;5.114;2023-09-12T01:44:30;151.48;;;36.20;;
59169;SDS011;52474;52.236;5.114;2023-09-12T01:47:00;285.33;;;37.92;;
59169;SDS011;52474;52.236;5.114;2023-09-12T01:49:29;345.83;;;37.28;;
59169;SDS011;52474;52.236;5.114;2023-09-12T01:51:58;319.77;;;36.53;;
59169;SDS011;52474;52.236;5.114;2023-09-12T01:54:25;453.52;;;45.65;;
59169;SDS011;52474;52.236;5.114;2023-09-12T01:56:53;414.33;;;41.25;;
59169;SDS011;52474;52.236;5.114;2023-09-12T01:59:23;238.85;;;35.17;;
59169;SDS011;52474;52.236;5.114;2023-09-12T02:01:49;266.50;;;34.90;;
59169;SDS011;52474;52.236;5.114;2023-09-12T02:04:15;337.08;;;38.60;;
59169;SDS011;52474;52.236;5.114;2023-09-12T02:06:41;398.77;;;44.95;;
59169;SDS011;52474;52.236;5.114;2023-09-12T02:09:06;215.20;;;32.75;;
59169;SDS011;52474;52.236;5.114;2023-09-12T02:11:32;272.55;;;36.90;;
59169;SDS011;52474;52.236;5.114;2023-09-12T02:13:58;184.48;;;33.08;;
59169;SDS011;52474;52.236;5.114;2023-09-12T02:16:24;183.45;;;31.27;;
59169;SDS011;52474;52.236;5.114;2023-09-12T02:18:49;121.38;;;31.38;;
59169;SDS011;52474;52.236;5.114;2023-09-12T02:21:15;142.48;;;33.05;;
59169;SDS011;52474;52.236;5.114;2023-09-12T02:23:41;97.03;;;33.17;;
59169;SDS011;52474;52.236;5.114;2023-09-12T02:26:07;202.68;;;34.33;;
59169;SDS011;52474;52.236;5.114;2023-09-12T02:28:33;174.60;;;33.92;;
59169;SDS011;52474;52.236;5.114;2023-09-12T02:30:58;338.48;;;39.90;;
59169;SDS011;52474;52.236;5.114;2023-09-12T02:33:24;571.17;;;53.28;;
59169;SDS011;52474;52.236;5.114;2023-09-12T02:35:50;385.60;;;45.17;;
59169;SDS011;52474;52.236;5.114;2023-09-12T02:38:16;455.77;;;50.47;;
59169;SDS011;52474;52.236;5.114;2023-09-12T02:40:43;632.78;;;63.25;;
59169;SDS011;52474;52.236;5.114;2023-09-12T02:43:08;504.02;;;55.83;;
59169;SDS011;52474;52.236;5.114;2023-09-12T02:45:34;296.88;;;43.95;;
59169;SDS011;52474;52.236;5.114;2023-09-12T02:48:00;262.20;;;42.90;;
59169;SDS011;52474;52.236;5.114;2023-09-12T02:50:25;403.05;;;53.05;;
59169;SDS011;52474;52.236;5.114;2023-09-12T02:52:51;316.33;;;48.53;;
59169;SDS011;52474;52.236;5.114;2023-09-12T02:55:17;228.30;;;44.58;;
59169;SDS011;52474;52.236;5.114;2023-09-12T02:57:42;308.50;;;50.20;;
59169;SDS011;52474;52.236;5.114;2023-09-12T03:00:08;311.02;;;51.75;;
59169;SDS011;52474;52.236;5.114;2023-09-12T03:02:34;575.88;;;64.40;;
59169;SDS011;52474;52.236;5.114;2023-09-12T03:05:00;512.55;;;61.35;;
59169;SDS011;52474;52.236;5.114;2023-09-12T03:07:29;540.65;;;65.72;;
59169;SDS011;52474;52.236;5.114;2023-09-12T03:09:56;466.05;;;58.78;;
59169;SDS011;52474;52.236;5.114;2023-09-12T03:12:21;291.30;;;53.95;;
59169;SDS011;52474;52.236;5.114;2023-09-12T03:14:47;291.00;;;47.40;;
59169;SDS011;52474;52.236;5.114;2023-09-12T03:17:13;278.15;;;48.10;;
59169;SDS011;52474;52.236;5.114;2023-09-12T03:19:38;336.00;;;49.58;;
59169;SDS011;52474;52.236;5.114;2023-09-12T03:22:04;442.17;;;53.38;;
59169;SDS011;52474;52.236;5.114;2023-09-12T03:24:30;369.80;;;52.65;;
59169;SDS011;52474;52.236;5.114;2023-09-12T03:26:56;402.88;;;53.53;;
59169;SDS011;52474;52.236;5.114;2023-09-12T03:29:22;380.45;;;57.10;;
59169;SDS011;52474;52.236;5.114;2023-09-12T03:31:48;446.13;;;66.32;;
59169;SDS011;52474;52.236;5.114;2023-09-12T03:34:15;417.48;;;64.13;;
59169;SDS011;52474;52.236;5.114;2023-09-12T03:36:40;626.58;;;77.75;;
59169;SDS011;52474;52.236;5.114;2023-09-12T03:39:06;641.05;;;78.43;;
59169;SDS011;52474;52.236;5.114;2023-09-12T03:41:37;548.13;;;74.35;;
59169;SDS011;52474;52.236;5.114;2023-09-12T03:44:03;594.17;;;77.60;;
59169;SDS011;52474;52.236;5.114;2023-09-12T03:46:29;535.70;;;72.68;;
59169;SDS011;52474;52.236;5.114;2023-09-12T03:48:54;555.60;;;73.40;;
59169;SDS011;52474;52.236;5.114;2023-09-12T03:51:20;355.75;;;63.72;;
59169;SDS011;52474;52.236;5.114;2023-09-12T03:53:46;327.38;;;64.47;;
59169;SDS011;52474;52.236;5.114;2023-09-12T03:56:13;378.08;;;62.33;;
59169;SDS011;52474;52.236;5.114;2023-09-12T03:58:40;557.60;;;69.65;;
59169;SDS011;52474;52.236;5.114;2023-09-12T04:01:06;546.00;;;74.45;;
59169;SDS011;52474;52.236;5.114;2023-09-12T04:03:31;543.15;;;73.18;;
59169;SDS011;52474;52.236;5.114;2023-09-12T04:05:58;319.30;;;63.28;;
59169;SDS011;52474;52.236;5.114;2023-09-12T04:08:24;345.17;;;62.85;;
59169;SDS011;52474;52.236;5.114;2023-09-12T04:10:49;241.73;;;61.22;;
59169;SDS011;52474;52.236;5.114;2023-09-12T04:13:15;268.17;;;62.65;;
59169;SDS011;52474;52.236;5.114;2023-09-12T04:15:41;253.35;;;58.17;;
59169;SDS011;52474;52.236;5.114;2023-09-12T04:18:07;265.17;;;60.85;;
59169;SDS011;52474;52.236;5.114;2023-09-12T04:20:32;287.45;;;62.72;;
59169;SDS011;52474;52.236;5.114;2023-09-12T04:23:02;271.40;;;67.30;;
59169;SDS011;52474;52.236;5.114;2023-09-12T04:27:56;317.70;;;65.22;;
59169;SDS011;52474;52.236;5.114;2023-09-12T04:30:22;342.05;;;64.53;;
59169;SDS011;52474;52.236;5.114;2023-09-12T04:32:47;345.98;;;70.43;;
59169;SDS011;52474;52.236;5.114;2023-09-12T04:35:13;367.70;;;64.38;;
59169;SDS011;52474;52.236;5.114;2023-09-12T04:37:39;347.83;;;64.82;;
59169;SDS011;52474;52.236;5.114;2023-09-12T04:40:06;319.83;;;60.22;;
59169;SDS011;52474;52.236;5.114;2023-09-12T04:42:33;349.58;;;62.63;;
59169;SDS011;52474;52.236;5.114;2023-09-12T04:44:59;357.88;;;62.55;;
59169;SDS011;52474;52.236;5.114;2023-09-12T04:47:25;524.80;;;72.93;;
59169;SDS011;52474;52.236;5.114;2023-09-12T04:49:50;485.98;;;70.05;;
59169;SDS011;52474;52.236;5.114;2023-09-12T04:52:17;217.43;;;58.67;;
59169;SDS011;52474;52.236;5.114;2023-09-12T04:54:43;242.25;;;58.38;;
59169;SDS011;52474;52.236;5.114;2023-09-12T04:57:09;280.63;;;62.28;;
59169;SDS011;52474;52.236;5.114;2023-09-12T04:59:35;242.60;;;64.30;;
59169;SDS011;52474;52.236;5.114;2023-09-12T05:02:01;309.35;;;63.60;;
59169;SDS011;52474;52.236;5.114;2023-09-12T05:04:27;402.80;;;67.50;;
59169;SDS011;52474;52.236;5.114;2023-09-12T05:06:53;269.73;;;62.47;;
59169;SDS011;52474;52.236;5.114;2023-09-12T05:09:19;233.10;;;60.17;;
59169;SDS011;52474;52.236;5.114;2023-09-12T05:11:44;238.60;;;57.45;;
59169;SDS011;52474;52.236;5.114;2023-09-12T05:14:10;215.98;;;57.47;;
59169;SDS011;52474;52.236;5.114;2023-09-12T05:16:36;185.95;;;55.40;;
59169;SDS011;52474;52.236;5.114;2023-09-12T05:19:02;197.50;;;59.80;;
59169;SDS011;52474;52.236;5.114;2023-09-12T05:21:29;184.95;;;56.35;;
59169;SDS011;52474;52.236;5.114;2023-09-12T05:23:55;169.07;;;61.47;;
59169;SDS011;52474;52.236;5.114;2023-09-12T05:26:20;186.23;;;59.65;;
59169;SDS011;52474;52.236;5.114;2023-09-12T05:28:46;147.48;;;60.50;;
59169;SDS011;52474;52.236;5.114;2023-09-12T05:31:12;183.95;;;63.13;;
59169;SDS011;52474;52.236;5.114;2023-09-12T05:33:37;211.40;;;66.15;;
59169;SDS011;52474;52.236;5.114;2023-09-12T05:36:03;205.10;;;66.47;;
59169;SDS011;52474;52.236;5.114;2023-09-12T05:38:29;206.88;;;69.38;;
59169;SDS011;52474;52.236;5.114;2023-09-12T05:40:55;214.70;;;65.43;;
59169;SDS011;52474;52.236;5.114;2023-09-12T05:43:22;195.93;;;63.00;;
59169;SDS011;52474;52.236;5.114;2023-09-12T05:45:48;195.73;;;60.90;;
59169;SDS011;52474;52.236;5.114;2023-09-12T05:48:13;190.25;;;65.85;;
59169;SDS011;52474;52.236;5.114;2023-09-12T05:50:39;204.35;;;63.42;;
59169;SDS011;52474;52.236;5.114;2023-09-12T05:53:05;207.68;;;62.72;;
59169;SDS011;52474;52.236;5.114;2023-09-12T05:55:31;189.48;;;58.90;;
59169;SDS011;52474;52.236;5.114;2023-09-12T05:57:56;187.43;;;60.38;;
59169;SDS011;52474;52.236;5.114;2023-09-12T06:00:22;191.45;;;61.42;;
59169;SDS011;52474;52.236;5.114;2023-09-12T06:02:48;177.35;;;61.97;;
59169;SDS011;52474;52.236;5.114;2023-09-12T06:05:14;180.35;;;60.15;;
59169;SDS011;52474;52.236;5.114;2023-09-12T06:07:41;177.13;;;62.17;;
59169;SDS011;52474;52.236;5.114;2023-09-12T06:10:10;162.27;;;57.90;;
59169;SDS011;52474;52.236;5.114;2023-09-12T06:12:35;182.82;;;59.28;;
59169;SDS011;52474;52.236;5.114;2023-09-12T06:15:04;163.52;;;56.67;;
59169;SDS011;52474;52.236;5.114;2023-09-12T06:17:32;166.88;;;57.97;;
59169;SDS011;52474;52.236;5.114;2023-09-12T06:20:00;173.32;;;54.45;;
59169;SDS011;52474;52.236;5.114;2023-09-12T06:22:26;149.25;;;54.35;;
59169;SDS011;52474;52.236;5.114;2023-09-12T06:24:52;155.32;;;53.08;;
59169;SDS011;52474;52.236;5.114;2023-09-12T06:27:18;146.55;;;52.45;;
59169;SDS011;52474;52.236;5.114;2023-09-12T06:29:44;138.13;;;50.40;;
59169;SDS011;52474;52.236;5.114;2023-09-12T06:32:14;158.98;;;52.15;;
59169;SDS011;52474;52.236;5.114;2023-09-12T06:34:40;150.05;;;50.03;;
59169;SDS011;52474;52.236;5.114;2023-09-12T06:37:07;146.07;;;48.72;;
59169;SDS011;52474;52.236;5.114;2023-09-12T06:39:33;159.25;;;48.55;;
59169;SDS011;52474;52.236;5.114;2023-09-12T06:41:59;134.82;;;46.05;;
59169;SDS011;52474;52.236;5.114;2023-09-12T06:44:24;145.75;;;48.03;;
59169;SDS011;52474;52.236;5.114;2023-09-12T06:46:50;153.10;;;50.75;;
59169;SDS011;52474;52.236;5.114;2023-09-12T06:49:16;168.90;;;50.50;;
59169;SDS011;52474;52.236;5.114;2023-09-12T06:51:42;144.80;;;47.78;;
59169;SDS011;52474;52.236;5.114;2023-09-12T06:54:07;152.63;;;49.03;;
59169;SDS011;52474;52.236;5.114;2023-09-12T06:56:33;152.27;;;49.25;;
59169;SDS011;52474;52.236;5.114;2023-09-12T06:59:05;138.02;;;48.03;;
59169;SDS011;52474;52.236;5.114;2023-09-12T07:01:31;123.03;;;46.40;;
59169;SDS011;52474;52.236;5.114;2023-09-12T07:03:56;135.05;;;48.65;;
59169;SDS011;52474;52.236;5.114;2023-09-12T07:06:23;153.02;;;48.90;;
59169;SDS011;52474;52.236;5.114;2023-09-12T07:08:49;123.88;;;46.95;;
59169;SDS011;52474;52.236;5.114;2023-09-12T07:11:16;187.80;;;53.00;;
59169;SDS011;52474;52.236;5.114;2023-09-12T07:13:42;141.98;;;51.08;;
59169;SDS011;52474;52.236;5.114;2023-09-12T07:16:08;131.65;;;47.25;;
59169;SDS011;52474;52.236;5.114;2023-09-12T07:18:34;178.43;;;51.78;;
59169;SDS011;52474;52.236;5.114;2023-09-12T07:21:00;135.88;;;49.55;;
59169;SDS011;52474;52.236;5.114;2023-09-12T07:23:27;164.63;;;51.33;;
59169;SDS011;52474;52.236;5.114;2023-09-12T07:25:54;134.70;;;49.08;;
59169;SDS011;52474;52.236;5.114;2023-09-12T07:28:25;135.43;;;48.50;;
59169;SDS011;52474;52.236;5.114;2023-09-12T07:30:52;140.63;;;47.72;;
59169;SDS011;52474;52.236;5.114;2023-09-12T07:33:19;136.05;;;49.83;;
59169;SDS011;52474;52.236;5.114;2023-09-12T07:35:46;161.88;;;50.72;;
59169;SDS011;52474;52.236;5.114;2023-09-12T07:38:12;133.88;;;48.90;;
59169;SDS011;52474;52.236;5.114;2023-09-12T07:40:41;125.75;;;45.95;;
59169;SDS011;52474;52.236;5.114;2023-09-12T07:43:07;120.60;;;45.28;;
59169;SDS011;52474;52.236;5.114;2023-09-12T07:45:34;150.68;;;48.67;;
59169;SDS011;52474;52.236;5.114;2023-09-12T07:48:06;122.88;;;47.60;;
59169;SDS011;52474;52.236;5.114;2023-09-12T07:50:32;128.50;;;48.83;;
59169;SDS011;52474;52.236;5.114;2023-09-12T07:52:59;132.88;;;47.42;;
59169;SDS011;52474;52.236;5.114;2023-09-12T07:55:25;128.43;;;47.13;;
59169;SDS011;52474;52.236;5.114;2023-09-12T07:57:51;117.47;;;45.08;;
59169;SDS011;52474;52.236;5.114;2023-09-12T08:00:16;130.80;;;47.90;;
59169;SDS011;52474;52.236;5.114;2023-09-12T08:02:42;129.68;;;46.63;;
59169;SDS011;52474;52.236;5.114;2023-09-12T08:05:08;126.18;;;46.05;;
59169;SDS011;52474;52.236;5.114;2023-09-12T08:07:34;129.43;;;47.22;;
59169;SDS011;52474;52.236;5.114;2023-09-12T08:10:01;109.13;;;43.05;;
59169;SDS011;52474;52.236;5.114;2023-09-12T08:12:28;109.90;;;46.33;;
59169;SDS011;52474;52.236;5.114;2023-09-12T08:14:54;101.68;;;45.28;;
59169;SDS011;52474;52.236;5.114;2023-09-12T08:17:20;111.07;;;48.45;;
59169;SDS011;52474;52.236;5.114;2023-09-12T08:19:47;175.55;;;52.00;;
59169;SDS011;52474;52.236;5.114;2023-09-12T08:22:13;90.28;;;44.88;;
59169;SDS011;52474;52.236;5.114;2023-09-12T08:24:39;80.57;;;42.97;;
59169;SDS011;52474;52.236;5.114;2023-09-12T08:27:05;83.63;;;45.58;;
59169;SDS011;52474;52.236;5.114;2023-09-12T08:29:32;80.97;;;44.53;;
59169;SDS011;52474;52.236;5.114;2023-09-12T08:31:59;72.15;;;41.08;;
59169;SDS011;52474;52.236;5.114;2023-09-12T08:34:26;68.18;;;40.92;;
59169;SDS011;52474;52.236;5.114;2023-09-12T08:36:52;73.68;;;43.53;;
59169;SDS011;52474;52.236;5.114;2023-09-12T08:39:22;72.78;;;43.42;;
59169;SDS011;52474;52.236;5.114;2023-09-12T08:41:50;74.07;;;41.38;;
59169;SDS011;52474;52.236;5.114;2023-09-12T08:44:17;71.20;;;39.50;;
59169;SDS011;52474;52.236;5.114;2023-09-12T08:46:44;71.22;;;40.88;;
59169;SDS011;52474;52.236;5.114;2023-09-12T08:49:11;73.15;;;40.45;;
59169;SDS011;52474;52.236;5.114;2023-09-12T08:51:37;65.25;;;39.20;;
59169;SDS011;52474;52.236;5.114;2023-09-12T08:54:04;70.82;;;39.80;;
59169;SDS011;52474;52.236;5.114;2023-09-12T08:56:32;78.40;;;43.85;;
59169;SDS011;52474;52.236;5.114;2023-09-12T08:59:00;73.23;;;41.13;;
59169;SDS011;52474;52.236;5.114;2023-09-12T09:01:26;71.55;;;40.90;;
59169;SDS011;52474;52.236;5.114;2023-09-12T09:03:55;65.72;;;41.92;;
59169;SDS011;52474;52.236;5.114;2023-09-12T09:06:22;62.03;;;39.42;;
59169;SDS011;52474;52.236;5.114;2023-09-12T09:08:49;55.75;;;38.60;;
59169;SDS011;52474;52.236;5.114;2023-09-12T09:11:16;56.38;;;39.13;;
59169;SDS011;52474;52.236;5.114;2023-09-12T09:13:42;55.70;;;38.45;;
59169;SDS011;52474;52.236;5.114;2023-09-12T09:16:15;57.83;;;37.15;;
59169;SDS011;52474;52.236;5.114;2023-09-12T09:19:00;55.15;;;37.67;;
59169;SDS011;52474;52.236;5.114;2023-09-12T09:21:36;55.17;;;38.05;;
59169;SDS011;52474;52.236;5.114;2023-09-12T09:24:09;64.07;;;44.00;;
59169;SDS011;52474;52.236;5.114;2023-09-12T09:26:43;56.25;;;37.60;;
59169;SDS011;52474;52.236;5.114;2023-09-12T09:29:14;54.58;;;37.55;;
59169;SDS011;52474;52.236;5.114;2023-09-12T09:31:41;50.45;;;39.72;;
59169;SDS011;52474;52.236;5.114;2023-09-12T09:34:12;47.63;;;35.05;;
59169;SDS011;52474;52.236;5.114;2023-09-12T09:36:42;47.20;;;36.80;;
59169;SDS011;52474;52.236;5.114;2023-09-12T09:39:08;54.22;;;40.85;;
59169;SDS011;52474;52.236;5.114;2023-09-12T09:41:35;53.20;;;40.50;;
59169;SDS011;52474;52.236;5.114;2023-09-12T09:44:02;53.92;;;42.17;;
59169;SDS011;52474;52.236;5.114;2023-09-12T09:46:29;53.33;;;40.05;;
59169;SDS011;52474;52.236;5.114;2023-09-12T09:48:55;47.83;;;40.08;;
59169;SDS011;52474;52.236;5.114;2023-09-12T09:51:21;49.15;;;36.45;;
59169;SDS011;52474;52.236;5.114;2023-09-12T09:53:48;53.88;;;40.00;;
59169;SDS011;52474;52.236;5.114;2023-09-12T09:56:16;50.97;;;40.10;;
59169;SDS011;52474;52.236;5.114;2023-09-12T09:58:46;50.13;;;36.55;;
59169;SDS011;52474;52.236;5.114;2023-09-12T10:01:17;46.88;;;34.15;;
59169;SDS011;52474;52.236;5.114;2023-09-12T10:03:48;51.85;;;39.67;;
59169;SDS011;52474;52.236;5.114;2023-09-12T10:06:18;46.20;;;37.20;;
59169;SDS011;52474;52.236;5.114;2023-09-12T10:08:45;47.10;;;35.30;;
59169;SDS011;52474;52.236;5.114;2023-09-12T10:11:15;49.72;;;33.88;;
59169;SDS011;52474;52.236;5.114;2023-09-12T10:13:55;48.90;;;34.53;;
59169;SDS011;52474;52.236;5.114;2023-09-12T10:16:29;46.75;;;34.80;;
59169;SDS011;52474;52.236;5.114;2023-09-12T10:18:58;49.90;;;38.10;;
59169;SDS011;52474;52.236;5.114;2023-09-12T10:21:30;54.33;;;41.17;;
59169;SDS011;52474;52.236;5.114;2023-09-12T10:24:00;55.35;;;42.45;;
59169;SDS011;52474;52.236;5.114;2023-09-12T10:26:28;55.70;;;43.93;;
59169;SDS011;52474;52.236;5.114;2023-09-12T10:28:56;51.00;;;39.08;;
59169;SDS011;52474;52.236;5.114;2023-09-12T10:31:25;56.72;;;41.42;;
59169;SDS011;52474;52.236;5.114;2023-09-12T10:33:52;54.55;;;40.80;;
59169;SDS011;52474;52.236;5.114;2023-09-12T10:36:19;53.42;;;38.00;;
59169;SDS011;52474;52.236;5.114;2023-09-12T10:38:46;51.13;;;35.92;;
59169;SDS011;52474;52.236;5.114;2023-09-12T10:41:13;52.15;;;37.28;;
59169;SDS011;52474;52.236;5.114;2023-09-12T10:43:40;49.08;;;38.08;;
59169;SDS011;52474;52.236;5.114;2023-09-12T10:46:08;51.53;;;40.15;;
59169;SDS011;52474;52.236;5.114;2023-09-12T10:48:37;50.38;;;41.60;;
59169;SDS011;52474;52.236;5.114;2023-09-12T10:51:05;46.97;;;38.40;;
59169;SDS011;52474;52.236;5.114;2023-09-12T10:53:32;39.17;;;30.98;;
59169;SDS011;52474;52.236;5.114;2023-09-12T10:56:00;43.95;;;34.60;;
59169;SDS011;52474;52.236;5.114;2023-09-12T10:58:27;47.13;;;36.45;;
59169;SDS011;52474;52.236;5.114;2023-09-12T11:03:48;43.20;;;35.03;;
59169;SDS011;52474;52.236;5.114;2023-09-12T11:06:20;42.78;;;37.72;;
59169;SDS011;52474;52.236;5.114;2023-09-12T11:11:39;38.50;;;33.55;;
59169;SDS011;52474;52.236;5.114;2023-09-12T11:14:09;36.30;;;31.38;;
59169;SDS011;52474;52.236;5.114;2023-09-12T11:16:35;33.95;;;30.38;;
59169;SDS011;52474;52.236;5.114;2023-09-12T11:21:52;38.20;;;32.13;;
59169;SDS011;52474;52.236;5.114;2023-09-12T11:24:19;43.58;;;35.40;;
59169;SDS011;52474;52.236;5.114;2023-09-12T11:26:58;37.97;;;33.28;;
59169;SDS011;52474;52.236;5.114;2023-09-12T11:29:37;38.58;;;33.38;;
59169;SDS011;52474;52.236;5.114;2023-09-12T11:32:04;34.28;;;28.38;;
59169;SDS011;52474;52.236;5.114;2023-09-12T11:34:37;40.03;;;28.52;;
59169;SDS011;52474;52.236;5.114;2023-09-12T11:37:06;37.05;;;29.00;;
59169;SDS011;52474;52.236;5.114;2023-09-12T11:39:37;38.33;;;30.85;;
59169;SDS011;52474;52.236;5.114;2023-09-12T11:42:04;33.42;;;28.67;;
59169;SDS011;52474;52.236;5.114;2023-09-12T11:44:35;31.55;;;27.80;;
59169;SDS011;52474;52.236;5.114;2023-09-12T11:47:01;33.30;;;26.73;;
59169;SDS011;52474;52.236;5.114;2023-09-12T11:49:36;31.92;;;25.75;;
59169;SDS011;52474;52.236;5.114;2023-09-12T11:52:03;29.95;;;26.77;;
59169;SDS011;52474;52.236;5.114;2023-09-12T11:54:32;31.27;;;27.90;;
59169;SDS011;52474;52.236;5.114;2023-09-12T11:56:58;33.90;;;27.90;;
59169;SDS011;52474;52.236;5.114;2023-09-12T11:59:28;30.65;;;27.25;;
59169;SDS011;52474;52.236;5.114;2023-09-12T12:01:54;32.45;;;27.33;;
59169;SDS011;52474;52.236;5.114;2023-09-12T12:04:24;34.55;;;27.38;;
59169;SDS011;52474;52.236;5.114;2023-09-12T12:06:51;33.63;;;25.17;;
59169;SDS011;52474;52.236;5.114;2023-09-12T12:09:17;28.80;;;22.17;;
59169;SDS011;52474;52.236;5.114;2023-09-12T12:11:47;28.25;;;23.83;;
59169;SDS011;52474;52.236;5.114;2023-09-12T12:14:14;29.42;;;24.60;;
59169;SDS011;52474;52.236;5.114;2023-09-12T12:16:41;34.85;;;27.58;;
59169;SDS011;52474;52.236;5.114;2023-09-12T12:19:08;37.50;;;28.23;;
59169;SDS011;52474;52.236;5.114;2023-09-12T12:21:35;39.95;;;30.35;;
59169;SDS011;52474;52.236;5.114;2023-09-12T12:24:01;40.05;;;33.30;;
59169;SDS011;52474;52.236;5.114;2023-09-12T12:26:28;35.25;;;30.77;;
59169;SDS011;52474;52.236;5.114;2023-09-12T12:28:54;37.47;;;31.08;;
59169;SDS011;52474;52.236;5.114;2023-09-12T12:31:19;37.75;;;31.27;;
59169;SDS011;52474;52.236;5.114;2023-09-12T12:33:47;33.25;;;26.83;;
59169;SDS011;52474;52.236;5.114;2023-09-12T12:36:14;32.42;;;27.40;;
59169;SDS011;52474;52.236;5.114;2023-09-12T12:38:45;35.63;;;28.77;;
59169;SDS011;52474;52.236;5.114;2023-09-12T12:41:22;37.33;;;32.10;;
59169;SDS011;52474;52.236;5.114;2023-09-12T12:43:51;39.38;;;30.27;;
59169;SDS011;52474;52.236;5.114;2023-09-12T12:46:17;43.00;;;30.17;;
59169;SDS011;52474;52.236;5.114;2023-09-12T12:48:44;42.88;;;32.35;;
59169;SDS011;52474;52.236;5.114;2023-09-12T12:51:17;50.10;;;34.80;;
59169;SDS011;52474;52.236;5.114;2023-09-12T12:53:46;59.13;;;39.78;;
59169;SDS011;52474;52.236;5.114;2023-09-12T12:56:20;62.30;;;39.35;;
59169;SDS011;52474;52.236;5.114;2023-09-12T12:58:51;63.25;;;40.60;;
59169;SDS011;52474;52.236;5.114;2023-09-12T13:01:20;61.30;;;41.55;;
59169;SDS011;52474;52.236;5.114;2023-09-12T13:03:46;65.72;;;41.30;;
59169;SDS011;52474;52.236;5.114;2023-09-12T13:06:15;74.03;;;42.58;;
59169;SDS011;52474;52.236;5.114;2023-09-12T13:08:43;65.75;;;41.92;;
59169;SDS011;52474;52.236;5.114;2023-09-12T13:11:10;68.38;;;42.58;;
59169;SDS011;52474;52.236;5.114;2023-09-12T13:13:40;74.32;;;44.45;;
59169;SDS011;52474;52.236;5.114;2023-09-12T13:16:08;59.28;;;38.72;;
59169;SDS011;52474;52.236;5.114;2023-09-12T13:18:35;68.90;;;40.42;;
59169;SDS011;52474;52.236;5.114;2023-09-12T13:21:02;58.67;;;39.13;;
59169;SDS011;52474;52.236;5.114;2023-09-12T13:23:28;55.60;;;37.45;;
59169;SDS011;52474;52.236;5.114;2023-09-12T13:25:54;54.75;;;37.83;;
59169;SDS011;52474;52.236;5.114;2023-09-12T13:28:21;48.92;;;34.13;;
59169;SDS011;52474;52.236;5.114;2023-09-12T13:30:53;50.22;;;37.38;;
59169;SDS011;52474;52.236;5.114;2023-09-12T13:33:19;47.83;;;34.22;;
59169;SDS011;52474;52.236;5.114;2023-09-12T13:35:45;46.80;;;37.30;;
59169;SDS011;52474;52.236;5.114;2023-09-12T13:38:11;45.65;;;30.50;;
59169;SDS011;52474;52.236;5.114;2023-09-12T13:40:40;39.67;;;26.90;;
59169;SDS011;52474;52.236;5.114;2023-09-12T13:45:36;43.95;;;28.40;;
59169;SDS011;52474;52.236;5.114;2023-09-12T13:48:02;33.88;;;24.45;;
59169;SDS011;52474;52.236;5.114;2023-09-12T13:50:29;25.48;;;18.92;;
59169;SDS011;52474;52.236;5.114;2023-09-12T13:52:57;35.00;;;22.77;;
59169;SDS011;52474;52.236;5.114;2023-09-12T13:55:25;33.40;;;21.57;;
59169;SDS011;52474;52.236;5.114;2023-09-12T13:57:51;29.13;;;20.70;;
59169;SDS011;52474;52.236;5.114;2023-09-12T14:00:17;30.83;;;20.75;;
59169;SDS011;52474;52.236;5.114;2023-09-12T14:02:43;29.70;;;19.23;;
59169;SDS011;52474;52.236;5.114;2023-09-12T14:05:09;20.80;;;17.13;;
59169;SDS011;52474;52.236;5.114;2023-09-12T14:07:37;23.92;;;17.77;;
59169;SDS011;52474;52.236;5.114;2023-09-12T14:10:05;21.52;;;17.58;;
59169;SDS011;52474;52.236;5.114;2023-09-12T14:12:32;24.38;;;17.70;;
59169;SDS011;52474;52.236;5.114;2023-09-12T14:14:58;23.13;;;16.70;;
59169;SDS011;52474;52.236;5.114;2023-09-12T14:17:23;21.05;;;15.10;;
59169;SDS011;52474;52.236;5.114;2023-09-12T14:19:49;18.05;;;14.90;;
59169;SDS011;52474;52.236;5.114;2023-09-12T14:22:15;15.38;;;11.23;;
59169;SDS011;52474;52.236;5.114;2023-09-12T14:24:41;13.05;;;11.63;;
59169;SDS011;52474;52.236;5.114;2023-09-12T14:27:07;17.38;;;12.95;;
59169;SDS011;52474;52.236;5.114;2023-09-12T14:29:32;14.45;;;11.82;;
59169;SDS011;52474;52.236;5.114;2023-09-12T14:31:58;13.43;;;11.23;;
59169;SDS011;52474;52.236;5.114;2023-09-12T14:34:27;11.80;;;10.27;;